Buckholts, Texas
Current Conditions -  °F | °C
As of 2:15 PM on Monday 26 Jan 2015 (Local Time) from KT35 Reporting Station
Clear Clear  
Wind Chill: 69°   Ceiling: Unl
Heat Index: 69°   Visibility: 10mi
Dew Point: 39°   Wind: 7mph
Humidity: 33%   Direction: 290°WNW
Pressure: 30.17"   Gusts: NA
Location:  30.87°N, 97.12°W
Report Text: KT35 262015Z AUTO 29006KT 10SM CLR 21/04 A3017 RMK AO2 T02060038
Loading
Personal Weather Stations






























Interactive Weather Map New forecast layout! Learn more

10-Day Weather Forecast

Advertisements
Track Severe Weather on mobile